Cleveland, VA (24225)

5:40 PM EST on December 07, 2016 (GMT -0500)
White's Mill | | Change Station

Elev 2113 ft 36.77 °N, 81.98 °W | Updated 44 seconds ago

Clear
Clear
43.9 °F
Feels Like 44 °F
N
2.0
Wind Variable Wind from NNE
Gusts 5.0 mph

Today
High -- | Low -- °F
--% Chance of Precip.
Yesterday
High -- | Low -- °F
Precip. -- in
Pressure 30.03 in
Visibility 10.0 miles
Clouds Clear
Windchill 44 °F
Dew Point 34 °F
Humidity 68%
Rainfall 0.00 in
Snow Depth Not available.
7:28 AM 5:11 PM
First Quarter, 56% visible
METAR KVJI 072235Z AUTO 01003KT 10SM CLR 08/01 A3003 RMK AO2 T00810010
Pressure 30.03 in
Visibility 10.0 miles
Clouds Clear
Windchill 44 °F
Dew Point 34 °F
Humidity 68%
Rainfall 0.00 in
Snow Depth Not available.
7:28 AM 5:11 PM
First Quarter, 56% visible
METAR KVJI 072235Z AUTO 01003KT 10SM CLR 08/01 A3003 RMK AO2 T00810010

10-Day Weather Forecast

Almanac

Astronomy

Dec. 07, 2016 Rise Set
Actual Time
Civil Twilight
Nautical Twilight
Astronomical Twilight
Moon
Length of Visible Light
Length of Day
Tomorrow will be .
, % of the Moon is Illuminated

Today's Extremes

State Highs State Lows

Community

WunderPhotos

Upload Photos

1,956,214 photos uploaded!

WunderBlog® & News

Nearby

Air Quality

  Air Quality AQ Index Pollutant
Not available.

Snow Depth

Station Depth Elevation

Earthquake Activity

City Distance Mag. Time & Date
Minimum magnitude displayed is 2.5.

Coastal Water Temperatures

Place Temperature

Stations

Nearby Weather Stations

Station Location Temp. Windchill Dew Point Humidity Wind Precip. Elev Updated Type
                   

Watches & Warnings

There are currently no watches in effect.